Time;durP1;ratioP1;P1;durP2;ratioP2;P2;SDS_P1;SDS_P2;PMS_P1;PMS_P2;Temp;Humidity;BMP_temperature;BMP_pressure;BME280_temperature;BME280_humidity;BME280_pressure;Samples;Min_cycle;Max_cycle;Signal;HPM_P1;HPM_P2
2023/10/13 00:00:41;;;;;;;19.63;13.02;;;17.60;99.90;;;17.73;91.86;100264.13;5011754;28;20052;-84
2023/10/13 00:03:14;;;;;;;27.20;13.65;;;17.60;99.90;;;17.75;91.50;100260.09;5080316;28;20044;-84
2023/10/13 00:05:43;;;;;;;19.85;13.30;;;17.60;99.90;;;17.78;91.54;100272.25;5063335;28;20056;-84
2023/10/13 00:08:11;;;;;;;21.30;12.70;;;17.60;99.90;;;17.74;91.78;100265.75;5078366;28;20041;-84
2023/10/13 00:10:39;;;;;;;19.70;12.55;;;17.60;99.90;;;17.78;91.44;100260.66;5081040;28;20060;-84
2023/10/13 00:13:11;;;;;;;18.95;11.95;;;17.60;99.90;;;17.76;91.41;100258.19;5081442;28;20056;-84
2023/10/13 00:15:56;;;;;;;25.67;13.88;;;17.60;99.90;;;17.74;91.80;100255.78;5083002;28;20047;-84
2023/10/13 00:18:26;;;;;;;21.92;12.15;;;17.60;99.90;;;17.69;92.31;100234.13;5084666;28;20048;-84
2023/10/13 00:20:56;;;;;;;24.77;13.23;;;17.60;99.90;;;17.74;92.16;100230.69;5050004;28;20048;-84
2023/10/13 00:23:27;;;;;;;20.20;11.45;;;17.60;99.90;;;17.76;92.01;100228.53;5061892;28;20049;-84
2023/10/13 00:26:03;;;;;;;22.98;11.07;;;17.60;99.90;;;17.77;91.57;100232.06;5063186;28;20053;-84
2023/10/13 00:28:43;;;;;;;21.67;11.77;;;17.60;99.90;;;17.79;91.41;100222.59;5046887;28;20041;-84
2023/10/13 00:31:14;;;;;;;20.58;11.40;;;17.60;99.90;;;17.78;91.39;100223.69;5063797;28;20041;-84
2023/10/13 00:33:42;;;;;;;18.60;12.23;;;17.60;99.90;;;17.78;91.37;100222.88;5046330;28;20045;-84
2023/10/13 00:36:17;;;;;;;19.75;11.27;;;17.60;99.90;;;17.78;91.13;100214.78;5030096;28;20139;-84
2023/10/13 00:38:48;;;;;;;21.23;11.95;;;17.60;99.90;;;17.75;91.30;100214.22;5046904;28;20416;-84
2023/10/13 00:41:16;;;;;;;;;;;17.60;99.90;;;17.78;91.46;100212.09;5083518;28;20040;-84
2023/10/13 00:44:03;;;;;;;19.00;11.70;;;17.70;99.90;;;17.77;91.58;100205.88;5048953;28;19924;-84
2023/10/13 00:46:35;;;;;;;20.60;11.52;;;17.70;99.90;;;17.73;92.30;100202.91;5081869;28;20048;-84
2023/10/13 00:49:05;;;;;;;21.77;11.38;;;17.70;99.90;;;17.75;92.35;100197.22;5063671;28;20143;-84
2023/10/13 00:51:32;;;;;;;24.00;13.10;;;17.60;99.90;;;17.79;92.06;100202.91;5082278;28;20066;-84
2023/10/13 00:54:07;;;;;;;21.30;12.20;;;17.60;99.90;;;17.75;92.22;100206.13;5063700;28;20454;-84
2023/10/13 00:56:40;;;;;;;20.42;12.25;;;17.60;99.90;;;17.72;92.29;100203.16;5064908;28;20049;-84
2023/10/13 00:59:09;;;;;;;20.25;11.38;;;17.60;99.90;;;17.73;92.57;100194.81;5081798;28;20049;-84
2023/10/13 01:01:42;;;;;;;19.80;12.20;;;17.70;99.90;;;17.71;92.43;100188.84;5064172;28;20049;-84
2023/10/13 01:04:11;;;;;;;21.73;11.73;;;17.70;99.90;;;17.73;92.38;100188.59;5029899;28;20059;-84
2023/10/13 01:06:40;;;;;;;19.27;10.73;;;17.60;99.90;;;17.74;92.77;100190.22;5048024;28;20048;-84
2023/10/13 01:09:11;;;;;;;16.05;11.75;;;17.70;99.90;;;17.74;92.33;100182.94;5064998;28;20044;-84
2023/10/13 01:11:40;;;;;;;;;;;17.70;99.90;;;17.72;92.40;100186.97;5027019;28;20141;-84
2023/10/13 01:14:06;;;;;;;18.98;11.88;;;17.60;99.90;;;17.67;92.69;100178.84;5063062;28;20395;-84
2023/10/13 01:16:35;;;;;;;21.15;11.02;;;17.70;99.90;;;17.68;92.74;100192.06;5062773;28;20115;-84
2023/10/13 01:19:05;;;;;;;18.58;11.25;;;17.60;99.90;;;17.72;92.53;100181.56;5028883;28;20046;-84
2023/10/13 01:21:33;;;;;;;18.23;10.75;;;17.60;99.90;;;17.75;92.37;100176.47;5045394;28;20053;-84
2023/10/13 01:24:07;;;;;;;18.65;10.65;;;17.60;99.90;;;17.80;92.13;100169.47;5061644;28;20059;-84
2023/10/13 01:26:38;;;;;;;19.25;11.18;;;17.70;99.90;;;17.80;91.90;100172.97;5061577;28;20128;-84
2023/10/13 01:29:14;;;;;;;15.10;10.02;;;17.70;99.90;;;17.77;92.03;100173.50;5044761;28;20123;-84
2023/10/13 01:31:48;;;;;;;19.17;10.48;;;17.70;99.90;;;17.79;91.66;100167.84;5045222;28;20129;-84
2023/10/13 01:34:21;;;;;;;15.35;10.73;;;17.70;99.90;;;17.77;92.00;100167.31;5044202;28;20060;-84
2023/10/13 01:36:51;;;;;;;20.00;11.35;;;17.70;99.90;;;17.75;91.50;100165.66;5028910;28;20048;-84
2023/10/13 01:39:21;;;;;;;15.85;10.48;;;17.70;99.90;;;17.77;91.88;100160.03;5045883;28;20069;-84
2023/10/13 01:41:53;;;;;;;19.20;10.00;;;17.70;99.90;;;17.79;92.04;100159.75;5045231;28;20547;-84
2023/10/13 01:44:20;;;;;;;16.10;10.85;;;17.70;99.90;;;17.77;91.93;100154.63;5028130;28;20045;-84
2023/10/13 01:46:47;;;;;;;18.85;10.77;;;17.70;99.90;;;17.82;91.58;100153.84;5061816;28;20534;-84
2023/10/13 01:49:15;;;;;;;21.20;10.75;;;17.70;99.90;;;17.80;91.44;100146.00;5027487;28;20068;-84
2023/10/13 01:51:47;;;;;;;17.20;10.15;;;17.70;99.90;;;17.78;91.43;100148.16;5045244;28;20041;-84
2023/10/13 01:54:15;;;;;;;18.83;11.70;;;17.70;99.90;;;17.77;91.83;100146.53;5029931;28;20048;-84
2023/10/13 01:56:44;;;;;;;17.60;11.60;;;17.70;99.90;;;17.79;91.62;100132.78;5044505;28;20045;-84
2023/10/13 01:59:11;;;;;;;19.58;10.55;;;17.70;99.90;;;17.79;91.63;100128.19;5061615;28;20045;-83
2023/10/13 02:01:39;;;;;;;21.50;12.15;;;17.70;99.90;;;17.75;92.33;100122.50;5061364;28;20536;-84
2023/10/13 02:04:07;;;;;;;16.17;10.65;;;17.70;99.90;;;17.78;92.48;100128.47;5044720;28;20108;-84
2023/10/13 02:06:39;;;;;;;16.65;10.50;;;17.70;99.90;;;17.79;92.05;100128.19;5044871;28;20122;-84
2023/10/13 02:09:12;;;;;;;18.30;11.38;;;17.70;99.90;;;17.81;92.03;100125.22;5076904;28;20041;-84
2023/10/13 02:11:41;;;;;;;17.40;10.57;;;17.70;99.90;;;17.83;91.74;100115.78;5082626;28;20515;-84
2023/10/13 02:14:17;;;;;;;18.77;11.43;;;17.70;99.90;;;17.86;91.53;100120.66;5065919;28;20477;-84
2023/10/13 02:16:46;;;;;;;18.70;11.55;;;17.70;99.90;;;17.81;92.01;100114.41;5064655;28;20053;-84
2023/10/13 02:19:15;;;;;;;18.73;10.45;;;17.60;99.90;;;17.78;92.77;100104.19;5082982;28;20107;-84
2023/10/13 02:21:44;;;;;;;19.45;11.60;;;17.60;99.90;;;17.80;92.20;100108.22;5080741;28;20055;-84
2023/10/13 02:24:13;;;;;;;23.52;11.68;;;17.70;99.90;;;17.77;92.54;100097.97;5046008;28;20071;-84
2023/10/13 02:26:42;;;;;;;21.40;11.20;;;17.70;99.90;;;17.80;92.48;100094.72;5081081;28;20112;-84
2023/10/13 02:29:12;;;;;;;22.42;11.30;;;17.70;99.90;;;17.84;91.98;100092.31;5031858;28;20523;-84
2023/10/13 02:31:54;;;;;;;16.88;10.25;;;17.70;99.90;;;17.86;91.61;100090.97;5064630;28;20059;-84
2023/10/13 02:34:23;;;;;;;14.13;10.15;;;17.70;99.90;;;17.87;91.47;100089.91;5080878;28;20064;-84
2023/10/13 02:36:50;;;;;;;18.48;10.85;;;17.70;99.90;;;17.86;91.56;100082.88;5047662;28;20075;-84
2023/10/13 02:39:25;;;;;;;17.50;10.70;;;17.70;99.90;;;17.87;91.47;100084.50;5065477;28;20515;-84
2023/10/13 02:41:55;;;;;;;18.88;10.35;;;17.70;99.90;;;17.86;91.56;100080.19;5081432;28;20187;-84
2023/10/13 02:44:27;;;;;;;18.10;11.02;;;17.70;99.90;;;17.85;91.39;100077.75;5081775;28;20454;-84
2023/10/13 02:46:55;;;;;;;19.13;10.55;;;17.70;99.90;;;17.86;91.54;100071.25;5063752;28;20048;-84
2023/10/13 02:49:22;;;;;;;17.00;10.50;;;17.70;99.90;;;17.86;91.30;100068.56;5082495;28;20052;-84
2023/10/13 02:51:52;;;;;;;18.80;10.05;;;17.70;99.90;;;17.85;91.96;100064.25;5063935;28;20040;-84
2023/10/13 02:54:19;;;;;;;16.50;10.65;;;17.70;99.90;;;17.86;91.59;100063.16;5082749;28;20039;-84
2023/10/13 02:56:56;;;;;;;20.77;11.27;;;17.70;99.90;;;17.87;91.42;100065.63;5030226;28;20497;-84
2023/10/13 02:59:34;;;;;;;19.27;10.10;;;17.70;99.90;;;17.84;91.82;100063.44;5044723;28;20059;-84
2023/10/13 03:02:06;;;;;;;17.35;10.27;;;17.70;99.90;;;17.86;91.79;100053.22;5014947;28;20041;-84
2023/10/13 03:04:33;;;;;;;15.38;10.45;;;17.70;99.90;;;17.89;91.39;100055.34;5044473;28;20049;-84
2023/10/13 03:07:04;;;;;;;15.65;11.02;;;17.70;99.90;;;17.91;91.21;100038.88;5044084;28;20111;-84
2023/10/13 03:09:37;;;;;;;25.98;11.50;;;17.70;99.90;;;17.93;90.72;100042.13;5043419;28;20041;-84
2023/10/13 03:12:05;;;;;;;17.85;10.63;;;17.70;99.90;;;17.95;90.90;100034.56;5061933;28;20096;-84
2023/10/13 03:14:35;;;;;;;17.42;10.55;;;17.70;99.90;;;17.95;90.61;100029.97;5015287;28;20040;-84
2023/10/13 03:17:06;;;;;;;29.85;11.68;;;17.70;99.90;;;17.97;90.77;100037.81;5064139;28;20043;-84
2023/10/13 03:19:33;;;;;;;19.58;11.48;;;17.70;99.90;;;17.95;91.13;100034.56;5063110;28;20051;-84
2023/10/13 03:22:08;;;;;;;18.38;11.77;;;17.70;99.90;;;17.93;91.44;100029.47;5080366;28;20050;-84
2023/10/13 03:24:35;;;;;;;19.52;10.70;;;17.70;99.90;;;17.92;91.32;100021.63;5082166;28;20560;-84
2023/10/13 03:27:08;;;;;;;18.98;12.05;;;17.70;99.90;;;17.87;92.25;100021.66;5063806;28;20158;-84
2023/10/13 03:29:39;;;;;;;18.67;11.57;;;17.70;99.90;;;17.85;92.79;100019.19;5082320;28;20041;-84
2023/10/13 03:32:11;;;;;;;19.83;12.02;;;17.70;99.90;;;17.83;92.89;100018.66;5080089;28;20051;-84
2023/10/13 03:34:54;;;;;;;19.08;11.93;;;17.70;99.90;;;17.81;93.10;100001.94;5043935;28;20048;-84
2023/10/13 03:37:38;;;;;;;17.55;11.20;;;17.60;99.90;;;17.82;93.54;100003.56;5017107;28;20555;-84
2023/10/13 03:40:33;;;;;;;19.25;11.98;;;17.60;99.90;;;17.81;93.20;100001.94;5044568;28;20044;-84
2023/10/13 03:43:04;;;;;;;23.77;11.95;;;17.70;99.90;;;17.86;92.69;100001.94;5033514;28;20051;-84
2023/10/13 03:45:39;;;;;;;18.80;11.95;;;17.70;99.90;;;17.87;92.99;99994.66;5010601;28;20420;-84
2023/10/13 03:48:27;;;;;;;23.98;12.68;;;17.70;99.90;;;17.89;93.03;99985.19;5062878;28;20045;-84
2023/10/13 03:51:03;;;;;;;16.00;11.85;;;17.70;99.90;;;17.90;92.60;99973.31;5065415;28;20033;-84
2023/10/13 03:53:34;;;;;;;25.05;13.35;;;17.70;99.90;;;17.90;92.89;99975.22;5066124;28;20472;-84
2023/10/13 03:56:14;;;;;;;26.90;14.30;;;17.70;99.90;;;17.87;93.25;99971.19;5031909;28;20109;-84
2023/10/13 03:58:45;;;;;;;21.58;12.48;;;17.70;99.90;;;17.85;93.56;99959.84;5033206;28;20040;-84
2023/10/13 04:01:16;;;;;;;;;;;17.70;99.90;;;17.85;93.57;99951.75;5047788;28;20064;-84
2023/10/13 04:03:57;;;;;;;28.80;12.90;;;17.70;99.90;;;17.84;93.38;99958.22;5065468;28;19921;-84
2023/10/13 04:06:48;;;;;;;20.60;13.70;;;17.70;99.90;;;17.85;93.50;99953.66;5033205;28;20490;-84
2023/10/13 04:13:10;;;;;;;21.23;12.35;;;17.70;99.90;;;17.85;93.93;99934.75;4989397;28;20077;-85
2023/10/13 04:15:26;;;;;;;21.92;13.10;;;17.70;99.90;;;17.86;93.42;99929.13;5057916;28;20518;-85
2023/10/13 04:17:57;;;;;;;20.98;12.23;;;17.70;99.90;;;17.89;93.16;99933.94;5058935;28;20416;-86
2023/10/13 04:20:32;;;;;;;28.98;14.82;;;17.70;99.90;;;17.89;92.89;99933.13;5044313;28;20052;-84
2023/10/13 04:23:19;;;;;;;19.27;12.30;;;17.70;99.90;;;17.87;93.47;99916.44;5038717;28;20197;-83
2023/10/13 04:28:52;;;;;;;21.10;12.13;;;17.70;99.90;;;17.88;92.98;99899.97;5022165;28;20149;-83
2023/10/13 04:31:46;;;;;;;19.88;12.23;;;17.70;99.90;;;17.89;92.99;99911.56;5021247;28;20045;-83
2023/10/13 04:34:27;;;;;;;23.55;13.23;;;17.70;99.90;;;17.86;93.24;99896.75;5045135;28;20048;-83
2023/10/13 04:37:11;;;;;;;20.00;12.27;;;17.70;99.90;;;17.83;93.57;99899.97;5067615;28;20219;-82
2023/10/13 04:39:39;;;;;;;23.08;12.35;;;17.70;99.90;;;17.85;93.95;99888.91;5081181;28;20057;-82
2023/10/13 04:42:26;;;;;;;22.92;12.07;;;17.70;99.90;;;17.87;93.59;99884.06;5064293;28;20045;-82
2023/10/13 04:45:00;;;;;;;20.23;11.90;;;17.70;99.90;;;17.88;92.83;99883.78;5083671;28;20076;-83
2023/10/13 04:47:29;;;;;;;20.20;11.80;;;17.70;99.90;;;17.89;93.54;99885.38;5082854;28;20037;-83
2023/10/13 04:50:00;;;;;;;24.10;12.45;;;17.70;99.90;;;17.91;92.92;99877.84;5082605;28;20048;-83
2023/10/13 04:52:38;;;;;;;17.45;11.68;;;17.70;99.90;;;17.90;93.28;99881.59;5083140;28;20047;-83
2023/10/13 04:55:17;;;;;;;22.60;12.27;;;17.70;99.90;;;17.89;93.72;99887.28;5079993;28;20075;-83
2023/10/13 04:58:00;;;;;;;21.40;12.75;;;17.70;99.90;;;17.89;94.18;99884.56;5083365;28;20048;-83
2023/10/13 05:04:03;;;;;;;19.08;12.50;;;17.70;99.90;;;17.91;94.04;99867.03;4994062;28;20046;-84
2023/10/13 05:45:36;;;;;;;23.20;11.73;;;17.80;99.90;;;17.90;97.96;99843.03;5036262;28;20075;-85
2023/10/13 05:48:11;;;;;;;25.70;13.27;;;17.80;99.90;;;17.88;98.14;99850.59;5085204;28;20049;-84
2023/10/13 05:51:32;;;;;;;21.85;11.20;;;17.80;99.90;;;17.87;98.63;99847.09;5097092;28;20059;-84
2023/10/13 06:29:45;;;;;;;24.33;9.70;;;17.90;99.90;;;17.86;100.00;99818.50;5040530;28;20041;-84
2023/10/13 06:32:16;;;;;;;19.45;9.48;;;17.90;99.90;;;17.86;100.00;99818.50;5058374;28;20044;-84
2023/10/13 06:34:44;;;;;;;22.95;9.80;;;17.90;99.90;;;17.82;100.00;99820.13;5040203;28;20531;-83
2023/10/13 06:37:24;;;;;;;19.95;9.00;;;17.90;99.90;;;17.84;100.00;99815.25;5022952;28;20041;-84
2023/10/13 06:39:52;;;;;;;21.38;9.40;;;17.90;99.90;;;17.83;100.00;99821.75;5056593;28;20049;-84
2023/10/13 06:42:21;;;;;;;20.50;8.68;;;17.90;99.90;;;17.85;100.00;99822.25;5058500;28;20044;-84
2023/10/13 06:44:51;;;;;;;22.63;9.30;;;17.90;99.90;;;17.88;100.00;99807.44;5058443;28;20040;-84
2023/10/13 06:47:20;;;;;;;17.10;8.65;;;17.90;99.90;;;17.88;100.00;99800.13;5076931;28;20470;-84
2023/10/13 06:49:51;;;;;;;20.35;9.13;;;17.90;99.90;;;17.90;100.00;99803.34;5077022;28;20071;-84
2023/10/13 06:52:18;;;;;;;22.15;10.25;;;17.90;99.90;;;17.88;100.00;99786.66;5076932;28;20044;-84
2023/10/13 06:54:47;;;;;;;19.23;9.38;;;17.90;99.90;;;17.91;100.00;99786.09;5057577;28;20565;-84
2023/10/13 06:57:15;;;;;;;20.30;10.68;;;17.90;99.90;;;17.96;100.00;99804.16;5075888;28;20048;-84
2023/10/13 06:59:42;;;;;;;17.85;10.00;;;17.90;99.90;;;17.97;100.00;99803.88;5059204;28;20041;-84
2023/10/13 07:02:20;;;;;;;17.20;10.13;;;18.00;99.90;;;17.95;100.00;99802.53;5075059;28;20144;-84
2023/10/13 07:04:48;;;;;;;25.70;11.13;;;18.00;99.90;;;18.00;100.00;99806.00;5059324;28;20041;-84
2023/10/13 07:07:16;;;;;;;23.00;10.63;;;18.00;99.90;;;18.04;100.00;99798.19;5058303;28;20051;-84
2023/10/13 07:09:49;;;;;;;23.17;10.38;;;18.00;99.90;;;18.07;100.00;99802.22;5042576;28;20036;-84
2023/10/13 07:12:22;;;;;;;25.52;11.27;;;18.10;99.90;;;18.10;100.00;99810.56;5058296;28;20044;-84
2023/10/13 07:14:53;;;;;;;20.30;10.80;;;18.10;99.90;;;18.13;100.00;99801.09;5076583;28;20040;-84
2023/10/13 07:17:24;;;;;;;;;;;18.10;99.90;;;18.17;100.00;99810.28;5058954;28;20067;-84
2023/10/13 07:20:05;;;;;;;23.60;11.35;;;18.10;99.90;;;18.19;100.00;99808.09;5077418;28;19986;-84
2023/10/13 07:22:39;;;;;;;18.70;10.07;;;18.20;99.90;;;18.24;100.00;99798.06;5043654;28;20040;-84
2023/10/13 07:25:08;;;;;;;26.45;11.15;;;18.20;99.90;;;18.27;100.00;99794.03;5043273;28;20565;-84
2023/10/13 07:27:36;;;;;;;25.92;11.02;;;18.30;99.90;;;18.28;100.00;99790.22;5057713;28;20106;-84
2023/10/13 07:30:13;;;;;;;20.83;11.23;;;18.30;99.90;;;18.31;100.00;99794.28;5059676;28;20044;-84
2023/10/13 07:32:45;;;;;;;23.63;10.63;;;18.30;99.90;;;18.35;100.00;99790.75;5060944;28;20049;-84
2023/10/13 07:35:15;;;;;;;20.15;10.55;;;18.30;99.90;;;18.32;100.00;99783.19;5059837;28;20036;-84
2023/10/13 07:37:43;;;;;;;23.88;11.00;;;18.30;99.90;;;18.36;100.00;99780.75;5077192;28;20076;-84
2023/10/13 07:40:35;;;;;;;21.80;10.35;;;18.40;99.90;;;18.34;100.00;99778.31;5058574;28;20117;-84
2023/10/13 07:43:08;;;;;;;25.02;10.25;;;18.40;99.90;;;18.36;100.00;99770.75;5060131;28;20052;-84
2023/10/13 07:45:40;;;;;;;24.80;9.77;;;18.40;99.90;;;18.38;100.00;99768.56;5026608;28;20037;-84
2023/10/13 07:48:20;;;;;;;19.80;9.63;;;18.50;99.90;;;18.43;100.00;99770.44;5077553;28;20045;-84
2023/10/13 07:50:48;;;;;;;20.15;9.80;;;18.50;99.90;;;18.49;100.00;99764.69;5078913;28;20381;-84
2023/10/13 07:53:23;;;;;;;26.35;10.90;;;18.60;99.90;;;18.54;100.00;99763.84;5079183;28;20123;-84
2023/10/13 07:55:56;;;;;;;26.80;9.73;;;18.60;99.90;;;18.58;100.00;99753.31;5059987;28;20048;-84
2023/10/13 07:58:26;;;;;;;20.75;9.52;;;18.70;99.90;;;18.57;100.00;99749.00;5041732;28;20044;-84
2023/10/13 08:01:06;;;;;;;19.67;9.57;;;18.80;99.90;;;18.58;100.00;99750.59;5076565;28;20044;-84
2023/10/13 08:03:43;;;;;;;21.23;9.47;;;18.70;99.90;;;18.62;100.00;99747.06;5058498;28;20048;-84
2023/10/13 08:06:21;;;;;;;16.30;8.82;;;18.70;99.90;;;18.62;100.00;99751.66;5059664;28;20313;-84
2023/10/13 08:08:53;;;;;;;20.98;9.45;;;18.70;99.90;;;18.65;100.00;99746.50;5077757;28;20396;-84
2023/10/13 08:11:30;;;;;;;21.80;9.75;;;18.80;99.90;;;18.75;100.00;99745.66;5059647;28;20576;-84
2023/10/13 08:14:00;;;;;;;18.90;9.77;;;18.90;99.90;;;18.80;100.00;99742.09;5069620;28;20076;-84
2023/10/13 08:16:45;;;;;;;25.52;9.63;;;19.00;99.90;;;18.85;100.00;99737.47;5058785;28;20075;-84
2023/10/13 08:19:20;;;;;;;18.30;9.20;;;19.00;99.90;;;18.90;100.00;99720.41;5054988;28;20071;-84
2023/10/13 08:21:51;;;;;;;16.55;8.90;;;19.10;99.90;;;18.90;100.00;99718.50;5036580;28;20048;-85
2023/10/13 08:24:25;;;;;;;20.33;9.23;;;19.10;99.90;;;18.92;100.00;99727.13;5057762;28;20029;-84
2023/10/13 08:27:32;;;;;;;23.15;9.63;;;19.10;99.90;;;19.00;100.00;99723.00;5069492;28;20040;-85
2023/10/13 08:32:54;;;;;;;19.80;8.75;;;19.20;99.90;;;19.10;99.94;99731.00;5077514;28;20094;-84
2023/10/13 08:38:13;;;;;;;24.00;8.38;;;19.30;99.90;;;19.13;99.16;99727.75;5058431;28;20045;-84
2023/10/13 08:43:45;;;;;;;23.35;8.75;;;19.30;99.90;;;19.19;98.00;99723.09;5058442;28;20582;-84
2023/10/13 08:46:29;;;;;;;24.20;8.18;;;19.40;99.90;;;19.23;97.90;99713.31;5052523;28;20057;-84
2023/10/13 08:49:13;;;;;;;24.52;8.40;;;19.40;99.90;;;19.26;98.17;99716.22;5051983;28;20044;-84
2023/10/13 08:51:48;;;;;;;19.42;8.27;;;19.40;99.90;;;19.35;97.54;99710.19;5083304;28;20067;-82
2023/10/13 08:54:20;;;;;;;24.58;9.35;;;19.50;99.90;;;19.42;97.80;99707.94;5051234;28;20489;-82
2023/10/13 08:56:56;;;;;;;20.85;7.03;;;19.60;99.90;;;19.42;95.33;99700.66;5045350;28;20045;-85
2023/10/13 08:59:33;;;;;;;22.55;7.60;;;19.60;99.90;;;19.41;91.44;99692.81;5060828;28;20074;-84
2023/10/13 09:02:15;;;;;;;18.52;7.10;;;19.60;99.90;;;19.40;91.88;99697.41;5012378;28;20118;-85
2023/10/13 09:04:44;;;;;;;18.50;7.53;;;19.60;99.90;;;19.35;91.97;99686.66;5057650;28;20063;-85
2023/10/13 09:07:21;;;;;;;17.65;6.90;;;19.60;99.90;;;19.33;88.96;99680.75;5058044;28;20048;-85
2023/10/13 09:09:59;;;;;;;18.73;6.90;;;19.60;99.90;;;19.39;88.25;99684.19;5077201;28;20385;-85
2023/10/13 09:12:38;;;;;;;22.35;7.30;;;19.60;99.90;;;19.48;89.91;99683.25;5058963;28;20045;-85
2023/10/13 09:15:24;;;;;;;21.20;7.82;;;19.70;99.90;;;19.55;89.38;99682.91;5075242;28;20522;-85
2023/10/13 09:18:12;;;;;;;18.20;7.32;;;19.80;99.90;;;19.62;90.06;99685.28;5059437;28;20084;-85
2023/10/13 09:20:42;;;;;;;20.58;7.68;;;19.90;99.90;;;19.67;89.94;99675.22;5062445;28;20048;-85
2023/10/13 09:23:23;;;;;;;18.55;7.07;;;19.90;99.90;;;19.73;87.93;99663.22;5058251;28;20078;-84
2023/10/13 09:25:53;;;;;;;24.05;7.88;;;20.00;99.90;;;19.78;87.00;99670.47;5048995;28;20049;-84
2023/10/13 09:28:24;;;;;;;19.43;7.80;;;20.00;99.90;;;19.80;87.70;99663.66;5052278;28;20085;-85
2023/10/13 09:30:52;;;;;;;;;;;20.10;99.90;;;19.83;88.68;99645.22;5076499;28;20044;-85
2023/10/13 09:33:32;;;;;;;26.15;8.40;;;20.10;99.90;;;19.81;86.36;99653.63;5041744;28;19920;-85
2023/10/13 09:35:59;;;;;;;18.42;7.18;;;20.10;99.90;;;19.88;87.08;99645.97;5074704;28;20051;-85
2023/10/13 09:38:31;;;;;;;17.17;7.60;;;20.20;99.90;;;19.92;86.38;99641.56;5075195;28;20076;-85
2023/10/13 09:41:01;;;;;;;18.90;7.38;;;20.20;99.90;;;19.98;84.38;99632.28;5057457;28;20041;-85
2023/10/13 09:43:30;;;;;;;19.30;7.28;;;20.30;99.90;;;20.06;83.32;99639.75;5060253;28;20068;-84
2023/10/13 09:46:04;;;;;;;18.85;7.50;;;20.30;99.90;;;20.11;83.27;99641.56;5057906;28;20041;-85
2023/10/13 09:48:36;;;;;;;20.52;7.70;;;20.40;99.90;;;20.11;81.96;99640.75;5047303;28;20029;-85
2023/10/13 09:51:08;;;;;;;18.23;7.05;;;20.40;99.90;;;20.13;82.51;99627.72;5069062;28;20053;-85
2023/10/13 09:53:38;;;;;;;20.55;7.80;;;20.40;99.90;;;20.13;81.37;99620.41;5056173;28;20041;-85
2023/10/13 09:56:14;;;;;;;20.27;7.07;;;20.40;99.90;;;20.17;81.44;99628.75;5075013;28;20044;-85
2023/10/13 09:58:51;;;;;;;20.67;7.32;;;20.40;99.90;;;20.15;80.60;99622.81;5016576;28;20056;-85
2023/10/13 10:01:37;;;;;;;22.25;7.25;;;20.40;99.90;;;20.18;81.37;99627.63;5046240;28;20041;-84
2023/10/13 10:04:10;;;;;;;22.30;7.80;;;20.40;99.90;;;20.32;81.03;99623.06;5059428;28;20040;-85
2023/10/13 10:06:44;;;;;;;21.13;6.93;;;20.60;99.90;;;20.35;80.26;99633.31;5075994;28;20063;-85
2023/10/13 10:09:12;;;;;;;15.25;6.97;;;20.60;99.90;;;20.39;80.20;99620.78;5057642;28;20423;-85
2023/10/13 10:12:19;;;;;;;14.52;6.50;;;20.70;99.90;;;20.48;78.91;99626.34;5041827;28;20559;-84
2023/10/13 10:15:10;;;;;;;19.35;7.55;;;20.80;99.90;;;20.50;77.60;99618.75;5057068;28;20045;-84
2023/10/13 10:17:41;;;;;;;21.27;7.30;;;20.80;99.90;;;20.54;77.15;99617.81;5055666;28;20458;-85
2023/10/13 10:20:19;;;;;;;;;;;20.90;99.90;;;20.55;76.31;99618.66;5058155;28;20045;-85
2023/10/13 10:23:00;;;;;;;27.25;7.55;;;20.90;99.90;;;20.50;77.02;99619.56;5075200;28;19927;-85
2023/10/13 10:25:35;;;;;;;25.52;7.90;;;20.80;99.90;;;20.48;76.65;99602.78;5053398;28;20389;-85
2023/10/13 10:28:06;;;;;;;15.40;7.43;;;20.80;99.90;;;20.48;75.83;99612.81;5038015;28;20045;-85
2023/10/13 10:30:38;;;;;;;20.15;6.97;;;20.80;99.90;;;20.47;75.05;99611.22;5021509;28;20167;-85
2023/10/13 10:33:11;;;;;;;17.13;7.50;;;20.80;99.90;;;20.49;75.40;99609.78;5073933;28;20048;-85
2023/10/13 10:35:42;;;;;;;17.45;7.82;;;20.80;99.90;;;20.49;76.09;99615.22;5073814;28;20037;-85
2023/10/13 10:38:23;;;;;;;17.05;7.20;;;20.80;99.90;;;20.52;76.41;99594.88;5056872;28;20037;-85
2023/10/13 10:40:57;;;;;;;;;;;20.80;99.90;;;20.54;77.20;99598.88;5055896;28;20543;-85
2023/10/13 10:43:29;;;;;;;19.40;7.93;;;20.80;99.90;;;20.60;77.32;99598.81;5074543;28;19924;-85
2023/10/13 10:46:00;;;;;;;19.20;7.25;;;20.90;99.90;;;20.62;76.21;99591.16;5063923;28;20124;-84
2023/10/13 10:48:34;;;;;;;;;;;20.90;99.90;;;20.61;75.56;99584.16;5060086;28;20496;-83
2023/10/13 10:51:13;;;;;;;21.50;7.47;;;20.90;99.90;;;20.61;75.41;99576.00;5060547;28;19925;-84
2023/10/13 10:58:06;;;;;;;18.33;7.03;;;21.00;99.90;;;20.72;77.41;99569.28;5020823;28;20080;-83
2023/10/13 11:00:45;;;;;;;18.48;8.75;;;21.00;99.90;;;20.68;75.57;99577.22;5020973;28;20056;-83
2023/10/13 11:03:13;;;;;;;16.55;7.82;;;21.00;99.90;;;20.67;75.26;99580.22;5031027;28;20119;-82
2023/10/13 11:05:48;;;;;;;14.82;7.60;;;21.00;99.90;;;20.69;74.71;99575.31;4988436;28;20611;-83
2023/10/13 11:08:31;;;;;;;15.95;7.53;;;21.00;99.90;;;20.71;76.10;99576.63;5017664;28;20042;-83
2023/10/13 11:11:00;;;;;;;20.98;8.18;;;21.00;99.90;;;20.73;75.24;99568.19;4997121;28;20037;-83
2023/10/13 11:13:50;;;;;;;22.35;9.32;;;21.00;99.90;;;20.74;74.20;99567.91;5037146;28;20045;-83
2023/10/13 11:16:23;;;;;;;17.35;8.55;;;21.00;99.90;;;20.75;73.37;99561.38;5009102;28;20088;-83
2023/10/13 11:19:02;;;;;;;22.40;8.82;;;21.00;99.90;;;20.85;73.43;99559.56;5020190;28;20045;-83
2023/10/13 11:21:31;;;;;;;20.25;9.00;;;21.10;99.90;;;20.89;73.91;99547.81;5019336;28;20425;-83
2023/10/13 11:24:08;;;;;;;17.77;8.60;;;21.20;99.90;;;20.88;74.08;99542.69;5025008;28;20069;-83
2023/10/13 11:26:49;;;;;;;16.35;8.82;;;21.10;99.90;;;20.86;74.75;99532.16;5036057;28;20058;-83
2023/10/13 11:29:19;;;;;;;19.58;8.45;;;21.10;99.90;;;20.87;74.12;99530.25;5017379;28;20053;-83
2023/10/13 11:31:57;;;;;;;18.80;9.27;;;21.10;99.90;;;20.90;74.38;99529.66;5069608;28;20045;-83
2023/10/13 11:34:25;;;;;;;19.75;8.77;;;21.10;99.90;;;20.91;73.20;99529.34;5043018;28;20047;-83
2023/10/13 11:36:53;;;;;;;18.75;8.65;;;21.20;99.90;;;20.98;72.15;99520.78;5067596;28;20049;-83
2023/10/13 11:39:24;;;;;;;19.35;8.48;;;21.30;99.90;;;21.03;72.18;99515.25;5079578;28;20089;-83
2023/10/13 11:41:55;;;;;;;24.15;9.20;;;21.30;99.90;;;21.06;73.29;99509.22;5057591;28;20127;-83
2023/10/13 11:44:30;;;;;;;16.90;7.70;;;21.40;99.90;;;21.11;70.87;99506.41;5058970;28;20052;-84
2023/10/13 11:47:16;;;;;;;27.10;8.35;;;21.40;99.90;;;21.15;72.62;99493.06;5059632;28;20051;-83
2023/10/13 11:49:44;;;;;;;24.05;8.50;;;21.40;99.90;;;21.19;70.96;99491.34;5043244;28;20144;-83
2023/10/13 11:52:19;;;;;;;19.10;8.23;;;21.50;99.90;;;21.26;70.03;99489.00;5077698;28;20045;-83
2023/10/13 11:54:49;;;;;;;23.05;8.45;;;21.50;99.90;;;21.36;70.36;99477.13;5052588;28;20082;-83
2023/10/13 11:57:19;;;;;;;22.85;8.40;;;21.60;99.90;;;21.41;69.27;99463.44;5061510;28;20443;-83
2023/10/13 12:00:15;;;;;;;25.27;8.18;;;21.70;99.90;;;21.48;67.79;99469.28;5078126;28;20499;-83
2023/10/13 12:05:48;;;;;;;21.60;7.95;;;22.00;99.90;;;21.64;67.61;99465.06;5044096;28;20041;-83
2023/10/13 12:08:22;;;;;;;32.42;8.32;;;22.00;99.90;;;21.68;69.21;99471.47;5060737;28;20094;-83
2023/10/13 12:10:59;;;;;;;24.30;8.25;;;22.00;99.90;;;21.66;68.99;99462.03;5066027;28;20037;-83
2023/10/13 12:13:28;;;;;;;18.85;7.55;;;22.00;99.90;;;21.68;68.06;99471.47;5064974;28;20148;-83
2023/10/13 12:15:57;;;;;;;20.65;7.93;;;22.00;99.90;;;21.74;66.07;99469.44;5082172;28;20123;-83